createdAt,value
2023-06-16T02:32:53.386Z,8.35
2023-06-16T02:35:29.321Z,12.82
2023-06-16T02:37:56.850Z,8.45
2023-06-16T02:40:25.709Z,8.10
2023-06-16T02:42:53.122Z,8.50
2023-06-16T02:45:20.545Z,14.90
2023-06-16T02:47:50.610Z,9.15
2023-06-16T02:50:18.530Z,11.57
2023-06-16T02:52:46.238Z,11.52
2023-06-16T02:55:17.366Z,8.60
2023-06-16T02:57:50.274Z,9.10
2023-06-16T03:00:19.440Z,10.48
2023-06-16T03:03:08.455Z,11.55
2023-06-16T03:05:37.496Z,13.48
2023-06-16T03:08:07.294Z,9.25
2023-06-16T03:10:34.875Z,12.70
2023-06-16T03:13:11.510Z,16.30
2023-06-16T03:15:39.140Z,17.40
2023-06-16T03:18:08.037Z,14.02
2023-06-16T03:20:36.143Z,11.05
2023-06-16T03:23:15.853Z,12.15
2023-06-16T03:25:43.309Z,12.98
2023-06-16T03:28:13.761Z,17.38
2023-06-16T03:30:41.404Z,12.50
2023-06-16T03:33:13.191Z,15.52
2023-06-16T03:35:44.307Z,15.27
2023-06-16T03:38:37.860Z,11.82
2023-06-16T03:41:05.264Z,9.52
2023-06-16T03:43:32.688Z,12.90
2023-06-16T03:46:00.507Z,18.33
2023-06-16T03:48:31.297Z,11.90
2023-06-16T03:51:02.434Z,14.38
2023-06-16T03:53:29.861Z,10.90
2023-06-16T03:55:57.383Z,11.32
2023-06-16T03:58:25.765Z,22.92
2023-06-16T04:00:53.397Z,8.75
2023-06-16T04:03:23.390Z,18.25
2023-06-16T04:05:52.452Z,13.05
2023-06-16T04:08:19.898Z,12.00
2023-06-16T04:10:47.581Z,13.60
2023-06-16T04:13:15.013Z,9.43
2023-06-16T04:15:44.411Z,14.95
2023-06-16T04:18:14.857Z,18.60
2023-06-16T04:20:42.278Z,11.90
2023-06-16T04:23:11.248Z,14.55
2023-06-16T04:25:39.415Z,14.73
2023-06-16T04:28:07.380Z,14.82
2023-06-16T04:33:03.606Z,30.20
2023-06-16T04:35:34.800Z,26.35
2023-06-16T04:38:04.836Z,21.40
2023-06-16T04:40:35.231Z,24.40
2023-06-16T04:43:03.236Z,20.25
2023-06-16T04:45:31.090Z,17.75
2023-06-16T04:47:58.580Z,18.63
2023-06-16T04:50:26.016Z,28.08
2023-06-16T04:52:54.094Z,25.98
2023-06-16T04:55:22.024Z,31.15
2023-06-16T05:00:18.746Z,35.22
2023-06-16T05:02:46.477Z,36.83
2023-06-16T05:05:14.117Z,30.23
2023-06-16T05:07:41.569Z,34.22
2023-06-16T05:10:09.700Z,45.67
2023-06-16T05:12:38.141Z,39.42
2023-06-16T05:15:06.219Z,40.22
2023-06-16T05:17:35.683Z,36.63
2023-06-16T05:20:04.330Z,38.28
2023-06-16T05:22:34.591Z,13.50
2023-06-16T05:25:02.005Z,30.83
2023-06-16T05:27:29.714Z,32.25
2023-06-16T05:30:00.850Z,25.23
2023-06-16T05:32:30.086Z,24.90
2023-06-16T05:34:59.047Z,19.90
2023-06-16T05:37:29.264Z,13.05
2023-06-16T05:39:56.895Z,24.38
2023-06-16T05:42:25.656Z,16.50
2023-06-16T05:44:53.118Z,20.83
2023-06-16T05:47:20.954Z,10.73
2023-06-16T05:49:49.704Z,11.27
2023-06-16T05:52:18.509Z,16.40
2023-06-16T05:54:46.324Z,23.90
2023-06-16T05:57:21.842Z,11.52
2023-06-16T06:02:20.435Z,11.30
2023-06-16T06:04:48.423Z,13.30
2023-06-16T06:07:17.951Z,16.58
2023-06-16T06:09:45.681Z,17.75
2023-06-16T06:12:13.327Z,17.83
2023-06-16T06:14:40.956Z,21.85
2023-06-16T06:17:08.406Z,12.77
2023-06-16T06:19:35.850Z,19.88
2023-06-16T06:22:04.482Z,17.15
2023-06-16T06:24:33.650Z,25.45
2023-06-16T06:27:02.710Z,20.42
2023-06-16T06:29:30.144Z,21.75
2023-06-16T06:31:57.718Z,15.80
2023-06-16T06:34:25.146Z,15.68
2023-06-16T06:36:52.562Z,13.10
2023-06-16T06:39:20.741Z,13.73
2023-06-16T06:41:49.896Z,15.93
2023-06-16T06:44:23.027Z,18.48
2023-06-16T06:46:51.526Z,15.73
2023-06-16T06:49:20.658Z,12.00
2023-06-16T06:51:48.038Z,17.58
2023-06-16T06:54:15.593Z,20.05
2023-06-16T06:56:43.004Z,20.25
2023-06-16T06:59:11.772Z,18.95
2023-06-16T07:01:39.349Z,13.98
2023-06-16T07:04:07.064Z,10.30
2023-06-16T07:06:34.706Z,19.33
2023-06-16T07:09:02.116Z,15.43
2023-06-16T07:11:29.546Z,24.73
2023-06-16T07:13:56.947Z,22.48
2023-06-16T07:16:25.787Z,12.93
2023-06-16T07:18:53.376Z,21.23
2023-06-16T07:21:20.774Z,8.25
2023-06-16T07:23:48.242Z,8.95
2023-06-16T07:26:15.656Z,13.90
2023-06-16T07:28:43.932Z,9.52
2023-06-16T07:31:12.030Z,12.10
2023-06-16T07:33:40.809Z,9.85
2023-06-16T07:36:08.333Z,7.75
2023-06-16T07:38:36.000Z,14.13
2023-06-16T07:43:32.347Z,14.27
2023-06-16T07:45:59.762Z,7.47
2023-06-16T07:48:27.262Z,7.50
2023-06-16T07:50:56.039Z,6.65
2023-06-16T07:53:23.589Z,9.77
2023-06-16T07:55:50.987Z,12.43
2023-06-16T07:58:18.355Z,10.02
2023-06-16T08:00:45.753Z,9.57
2023-06-16T08:03:13.326Z,11.23
2023-06-16T08:05:41.596Z,7.53
2023-06-16T08:08:10.404Z,9.50
2023-06-16T08:10:37.819Z,7.75
2023-06-16T08:13:05.261Z,11.07
2023-06-16T08:15:32.707Z,14.07
2023-06-16T08:18:00.182Z,8.57
2023-06-16T08:20:27.745Z,13.95
2023-06-16T08:22:55.139Z,9.57
2023-06-16T08:25:24.176Z,10.00
2023-06-16T08:27:51.620Z,8.10
2023-06-16T08:30:20.495Z,10.73
2023-06-16T08:32:48.063Z,9.38
2023-06-16T08:35:15.531Z,8.52
2023-06-16T08:37:42.944Z,5.72
2023-06-16T08:40:11.736Z,13.75
2023-06-16T08:42:42.256Z,13.80
2023-06-16T08:45:10.983Z,13.27
2023-06-16T08:47:39.980Z,8.85
2023-06-16T08:50:08.408Z,11.07
2023-06-16T08:52:44.071Z,9.32
2023-06-16T08:55:14.778Z,8.15
2023-06-16T08:57:47.513Z,13.18
2023-06-16T09:00:15.632Z,19.17
2023-06-16T09:02:43.321Z,11.25
2023-06-16T09:07:40.505Z,8.75
2023-06-16T09:10:08.649Z,10.30
2023-06-16T09:12:36.513Z,9.32
2023-06-16T09:15:07.609Z,16.58
2023-06-16T09:17:35.723Z,12.02
2023-06-16T09:20:07.576Z,5.30
2023-06-16T09:22:35.022Z,6.13
2023-06-16T09:25:05.347Z,5.60
2023-06-16T09:27:44.266Z,15.05
2023-06-16T09:30:14.844Z,12.77
2023-06-16T09:32:42.791Z,10.55
2023-06-16T09:35:16.932Z,6.05
2023-06-16T09:37:44.879Z,6.13
2023-06-16T09:40:12.901Z,7.35
2023-06-16T09:42:40.536Z,11.45
2023-06-16T09:47:38.018Z,6.80
2023-06-16T09:50:07.081Z,6.18
2023-06-16T09:52:34.566Z,7.78
2023-06-16T09:55:02.581Z,7.65
2023-06-16T09:57:36.368Z,7.85
2023-06-16T10:00:10.022Z,8.90
2023-06-16T10:02:40.229Z,5.28
2023-06-16T10:05:10.999Z,10.48
2023-06-16T10:07:38.945Z,10.15
2023-06-16T10:10:09.056Z,3.97
2023-06-16T10:12:38.053Z,7.53
2023-06-16T10:15:05.784Z,8.32
2023-06-16T10:20:02.200Z,8.77
2023-06-16T10:22:29.686Z,9.27
2023-06-16T10:24:57.154Z,4.47
2023-06-16T10:27:24.855Z,20.52
2023-06-16T10:29:52.899Z,7.03
2023-06-16T10:32:20.531Z,7.38
2023-06-16T10:34:50.371Z,7.85
2023-06-16T10:37:20.051Z,6.47
2023-06-16T10:39:47.728Z,7.35
2023-06-16T10:42:15.866Z,7.97
2023-06-16T10:44:44.487Z,13.30
2023-06-16T10:47:28.214Z,8.43
2023-06-16T10:49:56.820Z,10.25
2023-06-16T10:52:33.598Z,8.15
2023-06-16T10:55:16.386Z,6.30
2023-06-16T10:57:43.837Z,11.30
2023-06-16T11:00:12.978Z,5.97
2023-06-16T11:02:49.250Z,11.60
2023-06-16T11:05:18.180Z,6.35
2023-06-16T11:07:48.654Z,7.57
2023-06-16T11:10:21.830Z,5.88
2023-06-16T11:12:49.608Z,6.70
2023-06-16T11:15:17.039Z,9.25
2023-06-16T11:17:45.541Z,10.15
2023-06-16T11:20:14.300Z,7.30
2023-06-16T11:22:43.829Z,7.38
2023-06-16T11:25:13.964Z,7.93
2023-06-16T11:27:41.580Z,10.27
2023-06-16T11:30:09.674Z,7.93
2023-06-16T11:32:38.523Z,5.65
2023-06-16T11:35:06.699Z,5.93
2023-06-16T11:37:40.778Z,10.80
2023-06-16T11:40:09.349Z,5.35
2023-06-16T11:42:38.114Z,6.10
2023-06-16T11:45:05.964Z,7.43
2023-06-16T11:47:34.094Z,9.27
2023-06-16T11:50:01.512Z,11.15
2023-06-16T11:52:29.068Z,9.23
2023-06-16T11:54:58.376Z,5.90
2023-06-16T11:57:25.803Z,14.23
2023-06-16T11:59:54.663Z,6.38
2023-06-16T12:02:22.466Z,11.68
2023-06-16T12:04:50.250Z,4.63
2023-06-16T12:07:17.694Z,8.77
2023-06-16T12:09:45.097Z,11.30
2023-06-16T12:12:15.001Z,6.72
2023-06-16T12:14:42.686Z,5.78
2023-06-16T12:17:11.552Z,6.07
2023-06-16T12:19:40.500Z,7.95
2023-06-16T12:22:08.867Z,9.73
2023-06-16T12:24:36.443Z,7.05
2023-06-16T12:27:04.986Z,9.57
2023-06-16T12:29:33.058Z,8.48
2023-06-16T12:32:01.587Z,6.93
2023-06-16T12:34:31.389Z,11.00
2023-06-16T12:37:01.747Z,7.63
2023-06-16T12:39:29.457Z,6.15
2023-06-16T12:41:57.881Z,11.50
2023-06-16T12:44:25.562Z,12.35
2023-06-16T12:46:53.460Z,10.23
2023-06-16T12:49:21.448Z,10.32
2023-06-16T12:51:50.209Z,5.50
2023-06-16T12:54:19.496Z,7.65
2023-06-16T12:56:46.880Z,4.57
2023-06-16T12:59:15.995Z,8.27
2023-06-16T13:01:43.591Z,6.82
2023-06-16T13:04:11.133Z,9.73
2023-06-16T13:06:38.638Z,8.60
2023-06-16T13:09:07.443Z,11.02
2023-06-16T13:11:35.644Z,12.55
2023-06-16T13:14:03.484Z,7.18
2023-06-16T13:16:32.196Z,11.13
2023-06-16T13:18:59.963Z,9.45
2023-06-16T13:21:27.354Z,10.40
2023-06-16T13:23:54.788Z,10.90
2023-06-16T13:26:24.188Z,9.60
2023-06-16T13:28:51.672Z,5.22
2023-06-16T13:31:19.068Z,12.00
2023-06-16T13:33:46.537Z,5.97
2023-06-16T13:36:17.476Z,4.82
2023-06-16T13:38:45.303Z,5.88
2023-06-16T13:41:13.832Z,12.68
2023-06-16T13:43:43.416Z,8.73
2023-06-16T13:46:10.941Z,12.98
2023-06-16T13:48:38.468Z,8.32
2023-06-16T13:51:06.050Z,6.53
2023-06-16T13:53:33.521Z,8.63
2023-06-16T13:56:00.989Z,6.38
2023-06-16T13:58:28.547Z,10.68
2023-06-16T14:00:57.302Z,6.38
2023-06-16T14:03:27.069Z,5.05
2023-06-16T14:05:54.866Z,6.47
2023-06-16T14:08:22.292Z,11.85
2023-06-16T14:13:18.546Z,6.32
2023-06-16T14:15:46.007Z,8.57
2023-06-16T14:20:42.409Z,7.53
2023-06-16T14:23:09.911Z,7.70
2023-06-16T14:28:06.053Z,6.85
2023-06-16T14:30:38.971Z,14.27
2023-06-16T14:35:34.213Z,6.43
2023-06-16T14:40:30.645Z,9.50
2023-06-16T14:42:58.048Z,9.23
2023-06-16T14:50:20.851Z,9.13
2023-06-16T14:52:48.494Z,15.32
2023-06-16T14:57:44.644Z,15.77
2023-06-16T15:00:12.636Z,7.28
2023-06-16T15:02:40.128Z,7.18
2023-06-16T15:07:34.980Z,10.93
2023-06-16T15:19:53.076Z,7.53
2023-06-16T15:22:20.559Z,9.80
2023-06-16T15:24:47.972Z,6.15
2023-06-16T15:27:15.457Z,13.90
2023-06-16T15:34:38.769Z,19.30
2023-06-16T15:37:07.916Z,6.45
2023-06-16T15:39:35.461Z,8.10
2023-06-16T15:44:31.455Z,12.95
2023-06-16T15:46:58.859Z,11.40
2023-06-16T15:49:26.298Z,10.65
2023-06-16T15:51:53.803Z,10.35
2023-06-16T15:54:22.553Z,6.78
2023-06-16T15:56:49.974Z,5.95
2023-06-16T15:59:17.471Z,7.85
2023-06-16T16:01:45.670Z,11.80
2023-06-16T16:04:13.322Z,9.10
2023-06-16T16:11:40.902Z,7.50
2023-06-16T16:14:09.188Z,13.25
2023-06-16T16:16:36.629Z,7.50
2023-06-16T16:19:04.061Z,13.98
2023-06-16T16:21:31.892Z,9.00
2023-06-16T16:23:59.379Z,9.85
2023-06-16T16:26:26.856Z,14.55
2023-06-16T16:28:55.678Z,8.43
2023-06-16T16:31:23.748Z,5.15
2023-06-16T16:33:51.213Z,8.05
2023-06-16T16:36:19.624Z,10.32
2023-06-16T16:38:47.033Z,8.43
2023-06-16T16:41:14.434Z,6.75
2023-06-16T16:43:41.828Z,9.57
2023-06-16T16:46:10.774Z,8.77
2023-06-16T16:48:38.201Z,11.95
2023-06-16T16:51:06.521Z,7.32
2023-06-16T16:53:34.046Z,5.90
2023-06-16T16:58:28.759Z,5.97
2023-06-16T17:00:56.136Z,7.03
2023-06-16T17:03:25.418Z,5.55
2023-06-16T17:05:52.849Z,5.90
2023-06-16T17:08:20.318Z,5.60
2023-06-16T17:10:47.716Z,12.45
2023-06-16T17:13:15.121Z,10.45
2023-06-16T17:15:42.572Z,8.23
2023-06-16T17:18:10.041Z,6.22
2023-06-16T17:20:38.801Z,10.38
2023-06-16T17:23:06.307Z,8.77
2023-06-16T17:25:33.725Z,13.23
2023-06-16T17:28:01.264Z,11.77
2023-06-16T17:30:29.252Z,8.13
2023-06-16T17:33:00.022Z,7.63
2023-06-16T17:35:28.222Z,9.52
2023-06-16T17:37:57.103Z,23.52
2023-06-16T17:40:24.564Z,13.48
2023-06-16T17:42:51.977Z,6.68
2023-06-16T17:45:19.394Z,6.28
2023-06-16T17:47:47.179Z,9.95
2023-06-16T17:50:14.830Z,7.35
2023-06-16T17:55:11.231Z,10.23
2023-06-16T17:57:38.651Z,8.45
2023-06-16T18:00:07.798Z,8.60
2023-06-16T18:02:42.390Z,6.78
2023-06-16T18:05:10.364Z,9.88
2023-06-16T18:07:39.018Z,7.30
2023-06-16T18:10:06.978Z,16.27
2023-06-16T18:12:35.736Z,9.25
2023-06-16T18:15:03.303Z,13.93
2023-06-16T18:17:30.759Z,13.43
2023-06-16T18:19:58.357Z,10.82
2023-06-16T18:22:25.765Z,20.50
2023-06-16T18:24:53.163Z,9.75
2023-06-16T18:27:20.613Z,14.57
2023-06-16T18:29:49.791Z,8.73
2023-06-16T18:32:17.201Z,10.13
2023-06-16T18:34:44.643Z,6.55
2023-06-16T18:37:13.197Z,8.52
2023-06-16T18:39:40.636Z,10.63
2023-06-16T18:42:09.462Z,10.13
2023-06-16T18:44:36.897Z,18.70
2023-06-16T18:47:10.095Z,10.90
2023-06-16T18:49:37.690Z,6.75
2023-06-16T18:52:05.366Z,11.65
2023-06-16T18:57:00.444Z,20.27
2023-06-16T18:59:29.644Z,11.25
2023-06-16T19:01:58.654Z,9.23
2023-06-16T19:04:27.445Z,10.82
2023-06-16T19:06:54.923Z,15.23
2023-06-16T19:09:22.310Z,13.60
2023-06-16T19:11:49.780Z,13.27
2023-06-16T19:14:17.235Z,15.23
2023-06-16T19:16:44.637Z,6.50
2023-06-16T19:19:12.038Z,14.43
2023-06-16T19:21:40.769Z,13.05
2023-06-16T19:24:08.290Z,10.18
2023-06-16T19:26:35.694Z,5.38
2023-06-16T19:29:03.175Z,5.38
2023-06-16T19:31:31.198Z,8.05
2023-06-16T19:33:59.106Z,9.55
2023-06-16T19:36:26.510Z,10.80
2023-06-16T19:38:56.631Z,12.55
2023-06-16T19:41:25.466Z,9.23
2023-06-16T19:43:52.900Z,5.75
2023-06-16T19:46:20.309Z,8.57
2023-06-16T19:48:47.785Z,9.50
2023-06-16T19:51:15.359Z,9.10
2023-06-16T19:53:42.759Z,6.63
2023-06-16T19:56:11.480Z,8.43
2023-06-16T19:58:38.920Z,9.82
2023-06-16T20:01:06.904Z,10.35
2023-06-16T20:03:34.371Z,12.27
2023-06-16T20:06:01.972Z,14.30
2023-06-16T20:08:29.365Z,15.20
2023-06-16T20:10:56.852Z,11.40
2023-06-16T20:13:25.607Z,10.00
2023-06-16T20:15:53.002Z,8.20
2023-06-16T20:18:20.756Z,9.20
2023-06-16T20:23:17.329Z,9.38
2023-06-16T20:25:46.045Z,9.82
2023-06-16T20:28:13.625Z,7.18
2023-06-16T20:30:42.469Z,9.75
2023-06-16T20:33:10.876Z,11.70
2023-06-16T20:35:38.315Z,9.38
2023-06-16T20:38:05.744Z,8.02
2023-06-16T20:40:34.279Z,12.80
2023-06-16T20:43:01.780Z,6.20
2023-06-16T20:45:29.246Z,8.40
2023-06-16T20:47:58.012Z,10.93
2023-06-16T20:50:26.857Z,8.05
2023-06-16T20:52:54.587Z,11.05
2023-06-16T20:55:22.162Z,8.95
2023-06-16T20:57:49.930Z,6.85
2023-06-16T21:02:45.891Z,12.75
2023-06-16T21:05:14.784Z,8.75
2023-06-16T21:07:45.179Z,6.72
2023-06-16T21:10:13.393Z,9.52
2023-06-16T21:12:40.834Z,11.35
2023-06-16T21:15:10.070Z,14.50
2023-06-16T21:17:37.547Z,10.35
2023-06-16T21:20:07.586Z,10.27
2023-06-16T21:22:36.383Z,10.32
2023-06-16T21:25:04.872Z,9.35
2023-06-16T21:27:32.859Z,13.25
2023-06-16T21:30:00.684Z,12.23
2023-06-16T21:34:57.794Z,12.85
2023-06-16T21:37:25.890Z,12.18
2023-06-16T21:40:08.683Z,12.75
2023-06-16T21:42:37.370Z,9.98
2023-06-16T21:45:05.302Z,11.57
2023-06-16T21:47:32.714Z,7.60
2023-06-16T21:50:03.498Z,9.80
2023-06-16T21:52:31.524Z,9.30
2023-06-16T21:55:01.400Z,7.90
2023-06-16T21:57:29.297Z,11.68
2023-06-16T21:59:56.826Z,16.83
2023-06-16T22:02:24.437Z,10.15
2023-06-16T22:04:52.240Z,10.70
2023-06-16T22:07:21.240Z,11.05
2023-06-16T22:09:49.272Z,8.85
2023-06-16T22:14:46.965Z,8.75
2023-06-16T22:17:14.677Z,10.43
2023-06-16T22:19:42.957Z,16.52
2023-06-16T22:22:11.021Z,11.18
2023-06-16T22:24:39.441Z,11.05
2023-06-16T22:27:20.317Z,12.80
2023-06-16T22:29:50.064Z,10.00
2023-06-16T22:32:17.724Z,15.05
2023-06-16T22:34:45.264Z,17.98
2023-06-16T22:37:15.056Z,10.68
2023-06-16T22:39:43.279Z,11.82
2023-06-16T22:42:12.217Z,14.52
2023-06-16T22:44:39.775Z,15.65
2023-06-16T22:47:09.407Z,9.07
2023-06-16T22:49:37.049Z,11.43
2023-06-16T22:52:05.481Z,13.70
2023-06-16T22:54:32.914Z,11.43
2023-06-16T22:57:00.705Z,14.18
2023-06-16T22:59:28.149Z,14.60
2023-06-16T23:01:57.765Z,12.73
2023-06-16T23:04:26.696Z,8.85
2023-06-16T23:06:54.850Z,19.05
2023-06-16T23:09:22.277Z,15.15
2023-06-16T23:11:49.779Z,10.38
2023-06-16T23:14:17.261Z,10.38
2023-06-16T23:16:44.694Z,11.43
2023-06-16T23:19:13.250Z,14.43
2023-06-16T23:21:44.023Z,15.57
2023-06-16T23:24:11.976Z,16.85
2023-06-16T23:26:45.866Z,10.32
2023-06-16T23:29:18.781Z,14.52
2023-06-16T23:31:46.614Z,24.77
2023-06-16T23:34:14.193Z,14.38
2023-06-16T23:36:43.005Z,17.75
2023-06-16T23:39:11.596Z,10.25
2023-06-16T23:41:39.271Z,11.00
2023-06-16T23:44:06.694Z,8.95
2023-06-16T23:46:34.186Z,16.77
2023-06-16T23:49:01.801Z,9.35
2023-06-16T23:51:29.279Z,21.75
2023-06-16T23:53:58.022Z,14.75
2023-06-16T23:56:25.487Z,10.75
2023-06-16T23:58:52.977Z,12.85
